sensor_id;sensor_type;location;lat;lon;timestamp;pressure;altitude;pressure_sealevel;temperature;humidity
16190;BME280;41754;51.498;7.540;2023-02-21T00:02:21;100704.69;;;17.88;40.87
16190;BME280;41754;51.498;7.540;2023-02-21T00:05:07;100713.44;;;16.71;43.51
16190;BME280;41754;51.498;7.540;2023-02-21T00:07:53;100716.56;;;17.15;42.61
16190;BME280;41754;51.498;7.540;2023-02-21T00:10:39;100707.06;;;16.71;44.21
16190;BME280;41754;51.498;7.540;2023-02-21T00:13:24;100706.47;;;16.98;43.05
16190;BME280;41754;51.498;7.540;2023-02-21T00:16:13;100711.22;;;16.64;42.96
16190;BME280;41754;51.498;7.540;2023-02-21T00:18:58;100707.16;;;16.41;43.33
16190;BME280;41754;51.498;7.540;2023-02-21T00:21:44;100714.63;;;16.07;44.34
16190;BME280;41754;51.498;7.540;2023-02-21T00:24:30;100708.97;;;17.36;42.55
16190;BME280;41754;51.498;7.540;2023-02-21T00:27:16;100710.34;;;16.52;43.73
16190;BME280;41754;51.498;7.540;2023-02-21T00:30:01;100705.66;;;15.52;45.11
16190;BME280;41754;51.498;7.540;2023-02-21T00:32:48;100702.72;;;16.82;43.69
16190;BME280;41754;51.498;7.540;2023-02-21T00:35:33;100703.97;;;16.51;43.36
16190;BME280;41754;51.498;7.540;2023-02-21T00:38:18;100707.28;;;15.14;46.24
16190;BME280;41754;51.498;7.540;2023-02-21T00:41:05;100701.25;;;15.80;45.69
16190;BME280;41754;51.498;7.540;2023-02-21T00:43:51;100700.72;;;16.49;44.52
16190;BME280;41754;51.498;7.540;2023-02-21T00:46:36;100706.09;;;15.24;46.09
16190;BME280;41754;51.498;7.540;2023-02-21T00:49:22;100699.03;;;15.94;45.66
16190;BME280;41754;51.498;7.540;2023-02-21T00:52:08;100707.41;;;15.18;47.53
16190;BME280;41754;51.498;7.540;2023-02-21T00:54:53;100703.19;;;15.88;45.88
16190;BME280;41754;51.498;7.540;2023-02-21T00:57:40;100695.81;;;15.63;46.60
16190;BME280;41754;51.498;7.540;2023-02-21T01:00:25;100702.50;;;16.33;44.63
16190;BME280;41754;51.498;7.540;2023-02-21T01:03:11;100698.44;;;16.10;45.71
16190;BME280;41754;51.498;7.540;2023-02-21T01:05:56;100690.31;;;16.25;44.66
16190;BME280;41754;51.498;7.540;2023-02-21T01:08:43;100692.34;;;16.37;44.59
16190;BME280;41754;51.498;7.540;2023-02-21T01:11:30;100676.78;;;16.24;44.79
16190;BME280;41754;51.498;7.540;2023-02-21T01:14:17;100689.53;;;15.07;46.15
16190;BME280;41754;51.498;7.540;2023-02-21T01:17:02;100688.56;;;16.00;45.45
16190;BME280;41754;51.498;7.540;2023-02-21T01:19:48;100687.88;;;16.78;43.29
16190;BME280;41754;51.498;7.540;2023-02-21T01:22:34;100686.69;;;16.13;44.45
16190;BME280;41754;51.498;7.540;2023-02-21T01:25:19;100696.00;;;16.50;44.18
16190;BME280;41754;51.498;7.540;2023-02-21T01:28:04;100683.69;;;16.18;45.44
16190;BME280;41754;51.498;7.540;2023-02-21T01:30:51;100689.16;;;16.47;45.23
16190;BME280;41754;51.498;7.540;2023-02-21T01:33:38;100693.56;;;15.47;46.95
16190;BME280;41754;51.498;7.540;2023-02-21T01:36:24;100679.50;;;16.12;45.30
16190;BME280;41754;51.498;7.540;2023-02-21T01:39:10;100680.56;;;16.19;45.19
16190;BME280;41754;51.498;7.540;2023-02-21T01:41:56;100677.66;;;15.95;45.88
16190;BME280;41754;51.498;7.540;2023-02-21T01:44:43;100679.44;;;16.53;44.44
16190;BME280;41754;51.498;7.540;2023-02-21T01:47:31;100680.34;;;17.23;42.82
16190;BME280;41754;51.498;7.540;2023-02-21T01:50:20;100673.63;;;16.67;44.20
16190;BME280;41754;51.498;7.540;2023-02-21T01:53:08;100680.09;;;17.16;42.87
16190;BME280;41754;51.498;7.540;2023-02-21T01:55:55;100664.41;;;16.54;45.06
16190;BME280;41754;51.498;7.540;2023-02-21T01:58:41;100674.72;;;16.33;44.32
16190;BME280;41754;51.498;7.540;2023-02-21T02:01:34;100677.16;;;16.55;44.33
16190;BME280;41754;51.498;7.540;2023-02-21T02:04:23;100677.66;;;16.70;43.76
16190;BME280;41754;51.498;7.540;2023-02-21T02:07:09;100673.56;;;16.34;45.07
16190;BME280;41754;51.498;7.540;2023-02-21T02:09:54;100679.19;;;15.54;46.50
16190;BME280;41754;51.498;7.540;2023-02-21T02:12:59;100676.19;;;16.51;44.65
16190;BME280;41754;51.498;7.540;2023-02-21T02:15:51;100670.94;;;15.75;46.25
16190;BME280;41754;51.498;7.540;2023-02-21T02:18:48;100672.78;;;16.13;45.49
16190;BME280;41754;51.498;7.540;2023-02-21T02:21:53;100671.34;;;16.06;47.18
16190;BME280;41754;51.498;7.540;2023-02-21T02:24:37;100675.81;;;16.20;45.76
16190;BME280;41754;51.498;7.540;2023-02-21T02:30:20;100684.22;;;16.32;43.87
16190;BME280;41754;51.498;7.540;2023-02-21T02:33:28;100675.22;;;17.13;43.55
16190;BME280;41754;51.498;7.540;2023-02-21T02:36:05;100672.97;;;16.49;46.15
16190;BME280;41754;51.498;7.540;2023-02-21T02:38:40;100674.00;;;15.82;45.63
16190;BME280;41754;51.498;7.540;2023-02-21T02:41:26;100667.44;;;16.28;45.15
16190;BME280;41754;51.498;7.540;2023-02-21T02:44:01;100671.66;;;16.47;44.96
16190;BME280;41754;51.498;7.540;2023-02-21T02:46:33;100664.88;;;16.02;45.54
16190;BME280;41754;51.498;7.540;2023-02-21T02:49:07;100659.72;;;16.13;46.02
16190;BME280;41754;51.498;7.540;2023-02-21T02:51:37;100659.28;;;16.77;44.29
16190;BME280;41754;51.498;7.540;2023-02-21T02:54:07;100657.53;;;16.60;44.75
16190;BME280;41754;51.498;7.540;2023-02-21T02:56:35;100654.56;;;16.24;46.24
16190;BME280;41754;51.498;7.540;2023-02-21T02:59:06;100658.97;;;17.03;44.42
16190;BME280;41754;51.498;7.540;2023-02-21T03:01:52;100663.41;;;17.77;42.38
16190;BME280;41754;51.498;7.540;2023-02-21T03:04:48;100655.59;;;16.52;44.55
16190;BME280;41754;51.498;7.540;2023-02-21T03:07:27;100655.28;;;17.11;44.01
16190;BME280;41754;51.498;7.540;2023-02-21T03:10:10;100649.84;;;17.15;43.30
16190;BME280;41754;51.498;7.540;2023-02-21T03:12:44;100652.41;;;15.88;45.23
16190;BME280;41754;51.498;7.540;2023-02-21T03:15:17;100656.06;;;15.80;45.97
16190;BME280;41754;51.498;7.540;2023-02-21T03:17:50;100655.84;;;16.05;45.88
16190;BME280;41754;51.498;7.540;2023-02-21T03:20:21;100658.28;;;16.94;43.91
16190;BME280;41754;51.498;7.540;2023-02-21T03:22:51;100663.66;;;17.23;43.03
16190;BME280;41754;51.498;7.540;2023-02-21T03:25:22;100662.41;;;16.22;45.28
16190;BME280;41754;51.498;7.540;2023-02-21T03:27:54;100661.28;;;17.99;42.43
16190;BME280;41754;51.498;7.540;2023-02-21T03:30:24;100651.50;;;16.71;43.78
16190;BME280;41754;51.498;7.540;2023-02-21T03:32:54;100662.06;;;17.47;43.70
16190;BME280;41754;51.498;7.540;2023-02-21T03:35:27;100646.81;;;18.21;41.62
16190;BME280;41754;51.498;7.540;2023-02-21T03:37:58;100647.72;;;16.75;44.03
16190;BME280;41754;51.498;7.540;2023-02-21T03:40:29;100645.44;;;17.63;42.89
16190;BME280;41754;51.498;7.540;2023-02-21T03:43:00;100653.19;;;17.08;43.32
16190;BME280;41754;51.498;7.540;2023-02-21T03:45:34;100650.56;;;16.67;45.08
16190;BME280;41754;51.498;7.540;2023-02-21T03:48:12;100654.44;;;16.53;44.56
16190;BME280;41754;51.498;7.540;2023-02-21T03:50:49;100653.09;;;16.59;44.88
16190;BME280;41754;51.498;7.540;2023-02-21T03:53:20;100641.34;;;16.21;46.27
16190;BME280;41754;51.498;7.540;2023-02-21T03:55:47;100652.03;;;16.85;44.28
16190;BME280;41754;51.498;7.540;2023-02-21T03:58:21;100646.81;;;16.95;44.89
16190;BME280;41754;51.498;7.540;2023-02-21T04:00:49;100644.78;;;16.39;45.02
16190;BME280;41754;51.498;7.540;2023-02-21T04:03:20;100641.66;;;15.57;46.50
16190;BME280;41754;51.498;7.540;2023-02-21T04:05:54;100645.63;;;15.97;45.47
16190;BME280;41754;51.498;7.540;2023-02-21T04:08:24;100645.88;;;15.63;46.63
16190;BME280;41754;51.498;7.540;2023-02-21T04:10:51;100636.84;;;15.95;45.74
16190;BME280;41754;51.498;7.540;2023-02-21T04:13:22;100641.28;;;16.08;44.89
16190;BME280;41754;51.498;7.540;2023-02-21T04:15:51;100651.13;;;15.56;46.64
16190;BME280;41754;51.498;7.540;2023-02-21T04:18:20;100642.38;;;15.95;46.34
16190;BME280;41754;51.498;7.540;2023-02-21T04:20:49;100648.78;;;16.29;46.20
16190;BME280;41754;51.498;7.540;2023-02-21T04:23:19;100648.34;;;16.06;45.77
16190;BME280;41754;51.498;7.540;2023-02-21T04:25:49;100644.69;;;15.93;46.33
16190;BME280;41754;51.498;7.540;2023-02-21T04:28:24;100643.19;;;15.96;46.27
16190;BME280;41754;51.498;7.540;2023-02-21T04:30:52;100648.34;;;16.06;45.38
16190;BME280;41754;51.498;7.540;2023-02-21T04:33:19;100645.78;;;15.80;46.38
16190;BME280;41754;51.498;7.540;2023-02-21T04:35:47;100651.06;;;16.81;44.12
16190;BME280;41754;51.498;7.540;2023-02-21T04:38:23;100648.38;;;16.39;45.26
16190;BME280;41754;51.498;7.540;2023-02-21T04:40:52;100648.88;;;16.20;45.24
16190;BME280;41754;51.498;7.540;2023-02-21T04:43:20;100644.84;;;17.08;43.51
16190;BME280;41754;51.498;7.540;2023-02-21T04:45:48;100656.66;;;15.56;45.72
16190;BME280;41754;51.498;7.540;2023-02-21T04:48:16;100648.41;;;16.97;43.79
16190;BME280;41754;51.498;7.540;2023-02-21T04:50:44;100644.91;;;15.59;45.65
16190;BME280;41754;51.498;7.540;2023-02-21T04:53:12;100646.69;;;16.92;44.29
16190;BME280;41754;51.498;7.540;2023-02-21T04:55:39;100640.78;;;17.06;43.39
16190;BME280;41754;51.498;7.540;2023-02-21T04:58:08;100646.31;;;15.94;45.98
16190;BME280;41754;51.498;7.540;2023-02-21T05:00:36;100630.81;;;16.92;43.48
16190;BME280;41754;51.498;7.540;2023-02-21T05:03:04;100644.94;;;16.75;44.19
16190;BME280;41754;51.498;7.540;2023-02-21T05:05:32;100647.88;;;17.15;42.86
16190;BME280;41754;51.498;7.540;2023-02-21T05:07:59;100644.69;;;16.80;43.70
16190;BME280;41754;51.498;7.540;2023-02-21T05:10:27;100649.00;;;16.90;43.71
16190;BME280;41754;51.498;7.540;2023-02-21T05:13:12;100646.69;;;16.92;43.68
16190;BME280;41754;51.498;7.540;2023-02-21T05:15:40;100652.56;;;16.12;45.40
16190;BME280;41754;51.498;7.540;2023-02-21T05:18:08;100646.63;;;16.68;44.72
16190;BME280;41754;51.498;7.540;2023-02-21T05:20:35;100657.91;;;16.50;44.78
16190;BME280;41754;51.498;7.540;2023-02-21T05:23:03;100653.91;;;17.17;44.04
16190;BME280;41754;51.498;7.540;2023-02-21T05:25:39;100658.50;;;16.89;43.84
16190;BME280;41754;51.498;7.540;2023-02-21T05:28:07;100654.69;;;18.19;41.37
16190;BME280;41754;51.498;7.540;2023-02-21T05:30:36;100658.44;;;17.22;42.47
16190;BME280;41754;51.498;7.540;2023-02-21T05:33:04;100660.38;;;17.82;42.34
16190;BME280;41754;51.498;7.540;2023-02-21T05:35:32;100652.75;;;17.55;42.95
16190;BME280;41754;51.498;7.540;2023-02-21T05:38:00;100646.97;;;17.36;43.03
16190;BME280;41754;51.498;7.540;2023-02-21T05:40:28;100649.50;;;17.53;42.89
16190;BME280;41754;51.498;7.540;2023-02-21T05:42:56;100647.34;;;17.99;41.75
16190;BME280;41754;51.498;7.540;2023-02-21T05:45:24;100652.72;;;17.79;41.67
16190;BME280;41754;51.498;7.540;2023-02-21T05:47:53;100648.25;;;18.03;41.77
16190;BME280;41754;51.498;7.540;2023-02-21T05:50:25;100649.13;;;16.93;43.71
16190;BME280;41754;51.498;7.540;2023-02-21T05:52:53;100654.69;;;16.93;43.40
16190;BME280;41754;51.498;7.540;2023-02-21T05:55:21;100656.72;;;17.42;42.92
16190;BME280;41754;51.498;7.540;2023-02-21T05:57:49;100653.19;;;17.81;42.46
16190;BME280;41754;51.498;7.540;2023-02-21T06:00:18;100646.28;;;16.69;44.14
16190;BME280;41754;51.498;7.540;2023-02-21T06:02:46;100639.53;;;17.28;43.56
16190;BME280;41754;51.498;7.540;2023-02-21T06:05:16;100642.66;;;15.82;46.20
16190;BME280;41754;51.498;7.540;2023-02-21T06:07:44;100642.91;;;16.10;46.03
16190;BME280;41754;51.498;7.540;2023-02-21T06:10:13;100630.31;;;16.66;45.08
16190;BME280;41754;51.498;7.540;2023-02-21T06:12:42;100626.66;;;16.20;44.90
16190;BME280;41754;51.498;7.540;2023-02-21T06:15:10;100629.31;;;16.50;45.52
16190;BME280;41754;51.498;7.540;2023-02-21T06:17:38;100627.16;;;16.55;45.28
16190;BME280;41754;51.498;7.540;2023-02-21T06:20:07;100628.56;;;16.07;45.50
16190;BME280;41754;51.498;7.540;2023-02-21T06:22:38;100622.25;;;16.52;45.32
16190;BME280;41754;51.498;7.540;2023-02-21T06:25:06;100627.41;;;16.62;45.60
16190;BME280;41754;51.498;7.540;2023-02-21T06:27:35;100615.41;;;16.83;44.42
16190;BME280;41754;51.498;7.540;2023-02-21T06:30:03;100617.31;;;16.25;45.53
16190;BME280;41754;51.498;7.540;2023-02-21T06:32:32;100622.72;;;16.54;45.74
16190;BME280;41754;51.498;7.540;2023-02-21T06:35:00;100618.66;;;15.86;45.90
16190;BME280;41754;51.498;7.540;2023-02-21T06:37:27;100617.97;;;16.22;45.73
16190;BME280;41754;51.498;7.540;2023-02-21T06:39:57;100617.41;;;16.49;45.41
16190;BME280;41754;51.498;7.540;2023-02-21T06:42:24;100619.19;;;16.33;46.10
16190;BME280;41754;51.498;7.540;2023-02-21T06:44:53;100634.59;;;16.63;45.02
16190;BME280;41754;51.498;7.540;2023-02-21T06:47:21;100634.47;;;16.60;44.72
16190;BME280;41754;51.498;7.540;2023-02-21T06:49:49;100622.34;;;16.77;45.07
16190;BME280;41754;51.498;7.540;2023-02-21T06:52:17;100624.91;;;15.24;47.27
16190;BME280;41754;51.498;7.540;2023-02-21T06:54:44;100621.66;;;16.14;46.76
16190;BME280;41754;51.498;7.540;2023-02-21T06:57:13;100630.81;;;15.93;47.12
16190;BME280;41754;51.498;7.540;2023-02-21T06:59:41;100629.34;;;15.75;46.68
16190;BME280;41754;51.498;7.540;2023-02-21T07:02:14;100634.66;;;15.80;46.61
16190;BME280;41754;51.498;7.540;2023-02-21T07:04:43;100631.09;;;16.33;46.17
16190;BME280;41754;51.498;7.540;2023-02-21T07:07:12;100635.97;;;16.57;45.17
16190;BME280;41754;51.498;7.540;2023-02-21T07:09:40;100628.38;;;16.79;44.97
16190;BME280;41754;51.498;7.540;2023-02-21T07:12:08;100631.88;;;16.88;44.37
16190;BME280;41754;51.498;7.540;2023-02-21T07:14:37;100629.78;;;17.58;43.48
16190;BME280;41754;51.498;7.540;2023-02-21T07:17:05;100627.63;;;17.92;42.53
16190;BME280;41754;51.498;7.540;2023-02-21T07:19:33;100635.25;;;18.07;41.88
16190;BME280;41754;51.498;7.540;2023-02-21T07:22:01;100638.28;;;17.49;42.96
16190;BME280;41754;51.498;7.540;2023-02-21T07:24:29;100630.28;;;17.23;43.54
16190;BME280;41754;51.498;7.540;2023-02-21T07:26:56;100633.28;;;17.18;43.51
16190;BME280;41754;51.498;7.540;2023-02-21T07:29:24;100639.16;;;17.05;43.55
16190;BME280;41754;51.498;7.540;2023-02-21T07:31:54;100635.16;;;16.57;44.25
16190;BME280;41754;51.498;7.540;2023-02-21T07:34:23;100631.19;;;17.15;44.09
16190;BME280;41754;51.498;7.540;2023-02-21T07:36:51;100638.81;;;17.31;43.55
16190;BME280;41754;51.498;7.540;2023-02-21T07:39:19;100635.13;;;17.14;43.42
16190;BME280;41754;51.498;7.540;2023-02-21T07:41:46;100638.28;;;16.55;44.26
16190;BME280;41754;51.498;7.540;2023-02-21T07:44:21;100642.56;;;17.35;42.83
16190;BME280;41754;51.498;7.540;2023-02-21T07:46:49;100641.81;;;16.89;44.07
16190;BME280;41754;51.498;7.540;2023-02-21T07:49:18;100647.81;;;16.79;43.98
16190;BME280;41754;51.498;7.540;2023-02-21T07:51:46;100637.53;;;16.79;44.75
16190;BME280;41754;51.498;7.540;2023-02-21T07:54:14;100642.28;;;17.76;42.75
16190;BME280;41754;51.498;7.540;2023-02-21T07:56:43;100641.84;;;17.01;44.21
16190;BME280;41754;51.498;7.540;2023-02-21T07:59:11;100638.38;;;16.26;44.59
16190;BME280;41754;51.498;7.540;2023-02-21T08:01:39;100637.09;;;17.38;42.88
16190;BME280;41754;51.498;7.540;2023-02-21T08:04:07;100644.22;;;15.91;45.87
16190;BME280;41754;51.498;7.540;2023-02-21T08:06:36;100636.22;;;16.64;44.26
16190;BME280;41754;51.498;7.540;2023-02-21T08:09:04;100641.41;;;17.48;43.06
16190;BME280;41754;51.498;7.540;2023-02-21T08:11:32;100642.31;;;17.03;43.65
16190;BME280;41754;51.498;7.540;2023-02-21T08:14:02;100643.31;;;16.20;45.11
16190;BME280;41754;51.498;7.540;2023-02-21T08:16:30;100641.13;;;16.92;44.13
16190;BME280;41754;51.498;7.540;2023-02-21T08:19:00;100648.06;;;16.53;44.96
16190;BME280;41754;51.498;7.540;2023-02-21T08:21:28;100644.69;;;16.14;44.99
16190;BME280;41754;51.498;7.540;2023-02-21T08:23:57;100646.13;;;16.99;43.27
16190;BME280;41754;51.498;7.540;2023-02-21T08:26:25;100649.03;;;17.02;44.10
16190;BME280;41754;51.498;7.540;2023-02-21T08:28:53;100653.53;;;16.28;44.78
16190;BME280;41754;51.498;7.540;2023-02-21T08:31:21;100640.91;;;17.34;43.20
16190;BME280;41754;51.498;7.540;2023-02-21T08:33:49;100646.53;;;16.43;44.82
16190;BME280;41754;51.498;7.540;2023-02-21T08:36:16;100644.59;;;16.77;45.00
16190;BME280;41754;51.498;7.540;2023-02-21T08:38:44;100639.53;;;16.25;45.35
16190;BME280;41754;51.498;7.540;2023-02-21T08:41:13;100640.75;;;16.36;45.78
16190;BME280;41754;51.498;7.540;2023-02-21T08:43:42;100639.59;;;16.82;44.35
16190;BME280;41754;51.498;7.540;2023-02-21T08:46:09;100637.44;;;17.24;43.59
16190;BME280;41754;51.498;7.540;2023-02-21T08:48:37;100631.56;;;16.23;46.01
16190;BME280;41754;51.498;7.540;2023-02-21T08:51:05;100636.28;;;17.13;44.35
16190;BME280;41754;51.498;7.540;2023-02-21T08:53:33;100636.16;;;16.85;44.18
16190;BME280;41754;51.498;7.540;2023-02-21T08:56:00;100643.94;;;16.26;44.73
16190;BME280;41754;51.498;7.540;2023-02-21T08:58:30;100649.38;;;16.34;45.10
16190;BME280;41754;51.498;7.540;2023-02-21T09:00:58;100648.84;;;16.62;44.18
16190;BME280;41754;51.498;7.540;2023-02-21T09:03:25;100641.16;;;16.26;45.03
16190;BME280;41754;51.498;7.540;2023-02-21T09:05:53;100648.97;;;16.45;44.82
16190;BME280;41754;51.498;7.540;2023-02-21T09:08:21;100650.78;;;15.66;45.57
16190;BME280;41754;51.498;7.540;2023-02-21T09:10:52;100654.28;;;15.16;47.42
16190;BME280;41754;51.498;7.540;2023-02-21T09:13:21;100646.16;;;15.70;46.26
16190;BME280;41754;51.498;7.540;2023-02-21T09:15:50;100651.53;;;15.75;46.51
16190;BME280;41754;51.498;7.540;2023-02-21T09:18:18;100641.16;;;16.26;45.76
16190;BME280;41754;51.498;7.540;2023-02-21T09:20:46;100643.41;;;16.45;45.30
16190;BME280;41754;51.498;7.540;2023-02-21T09:23:17;100645.38;;;17.47;42.93
16190;BME280;41754;51.498;7.540;2023-02-21T09:25:45;100641.88;;;17.50;43.10
16190;BME280;41754;51.498;7.540;2023-02-21T09:28:13;100655.59;;;16.52;43.88
16190;BME280;41754;51.498;7.540;2023-02-21T09:30:41;100652.72;;;16.94;44.01
16190;BME280;41754;51.498;7.540;2023-02-21T09:33:11;100643.13;;;16.58;44.68
16190;BME280;41754;51.498;7.540;2023-02-21T09:35:39;100649.38;;;17.25;42.75
16190;BME280;41754;51.498;7.540;2023-02-21T09:38:07;100649.88;;;16.70;43.82
16190;BME280;41754;51.498;7.540;2023-02-21T09:40:39;100646.16;;;17.72;42.69
16190;BME280;41754;51.498;7.540;2023-02-21T09:43:12;100651.91;;;17.79;41.89
16190;BME280;41754;51.498;7.540;2023-02-21T09:45:41;100655.31;;;18.13;41.28
16190;BME280;41754;51.498;7.540;2023-02-21T09:48:14;100662.22;;;16.27;44.36
16190;BME280;41754;51.498;7.540;2023-02-21T09:50:45;100653.44;;;16.04;45.96
16190;BME280;41754;51.498;7.540;2023-02-21T09:53:17;100643.56;;;16.93;43.44
16190;BME280;41754;51.498;7.540;2023-02-21T09:55:48;100660.78;;;16.75;44.00
16190;BME280;41754;51.498;7.540;2023-02-21T09:58:18;100650.31;;;17.66;42.46
16190;BME280;41754;51.498;7.540;2023-02-21T10:00:46;100660.59;;;17.90;42.07
16190;BME280;41754;51.498;7.540;2023-02-21T10:03:43;100651.72;;;17.35;42.15
16190;BME280;41754;51.498;7.540;2023-02-21T10:06:24;100655.31;;;17.36;42.93
16190;BME280;41754;51.498;7.540;2023-02-21T10:08:59;100655.75;;;18.15;40.99
16190;BME280;41754;51.498;7.540;2023-02-21T10:11:36;100656.22;;;17.40;42.72
16190;BME280;41754;51.498;7.540;2023-02-21T10:14:18;100654.34;;;17.07;43.18
16190;BME280;41754;51.498;7.540;2023-02-21T10:16:53;100661.91;;;16.61;43.34
16190;BME280;41754;51.498;7.540;2023-02-21T10:19:27;100660.94;;;16.24;44.74
16190;BME280;41754;51.498;7.540;2023-02-21T10:21:59;100655.22;;;16.62;43.90
16190;BME280;41754;51.498;7.540;2023-02-21T10:24:30;100659.91;;;16.29;45.10
16190;BME280;41754;51.498;7.540;2023-02-21T10:27:01;100658.25;;;16.82;43.97
16190;BME280;41754;51.498;7.540;2023-02-21T10:29:38;100660.66;;;17.53;42.56
16190;BME280;41754;51.498;7.540;2023-02-21T10:32:08;100664.09;;;17.01;43.42
16190;BME280;41754;51.498;7.540;2023-02-21T10:34:38;100665.84;;;17.55;42.63
16190;BME280;41754;51.498;7.540;2023-02-21T10:37:27;100663.28;;;16.34;44.90
16190;BME280;41754;51.498;7.540;2023-02-21T10:40:03;100660.16;;;17.14;43.99
16190;BME280;41754;51.498;7.540;2023-02-21T10:42:39;100652.47;;;17.97;41.51
16190;BME280;41754;51.498;7.540;2023-02-21T10:45:11;100665.09;;;17.94;42.08
16190;BME280;41754;51.498;7.540;2023-02-21T10:47:49;100659.09;;;18.20;41.21
16190;BME280;41754;51.498;7.540;2023-02-21T10:50:38;100664.97;;;18.03;41.93
16190;BME280;41754;51.498;7.540;2023-02-21T10:53:07;100664.59;;;17.52;42.33
16190;BME280;41754;51.498;7.540;2023-02-21T10:55:35;100670.97;;;16.83;43.24
16190;BME280;41754;51.498;7.540;2023-02-21T10:58:08;100670.81;;;17.24;43.27
16190;BME280;41754;51.498;7.540;2023-02-21T11:00:38;100662.59;;;17.28;42.26
16190;BME280;41754;51.498;7.540;2023-02-21T11:03:14;100660.50;;;17.74;42.13
16190;BME280;41754;51.498;7.540;2023-02-21T11:05:51;100661.56;;;17.57;42.33
16190;BME280;41754;51.498;7.540;2023-02-21T11:08:34;100652.34;;;16.95;43.43
16190;BME280;41754;51.498;7.540;2023-02-21T11:11:04;100654.59;;;17.27;42.59
16190;BME280;41754;51.498;7.540;2023-02-21T11:13:33;100656.13;;;17.24;42.76
16190;BME280;41754;51.498;7.540;2023-02-21T11:16:10;100651.06;;;16.81;43.79
16190;BME280;41754;51.498;7.540;2023-02-21T11:18:38;100657.09;;;18.33;41.86
16190;BME280;41754;51.498;7.540;2023-02-21T11:21:14;100655.03;;;17.77;42.35
16190;BME280;41754;51.498;7.540;2023-02-21T11:23:44;100658.53;;;17.38;42.66
16190;BME280;41754;51.498;7.540;2023-02-21T11:26:15;100655.81;;;18.02;42.17
16190;BME280;41754;51.498;7.540;2023-02-21T11:28:44;100652.97;;;17.38;42.50
16190;BME280;41754;51.498;7.540;2023-02-21T11:31:16;100656.13;;;17.61;42.35
16190;BME280;41754;51.498;7.540;2023-02-21T11:33:50;100648.19;;;18.27;41.52
16190;BME280;41754;51.498;7.540;2023-02-21T11:36:26;100640.06;;;18.22;41.22
16190;BME280;41754;51.498;7.540;2023-02-21T11:39:03;100648.56;;;18.26;40.93
16190;BME280;41754;51.498;7.540;2023-02-21T11:41:44;100647.94;;;18.76;40.16
16190;BME280;41754;51.498;7.540;2023-02-21T11:44:24;100643.84;;;18.58;40.92
16190;BME280;41754;51.498;7.540;2023-02-21T11:46:57;100643.78;;;18.26;40.75
16190;BME280;41754;51.498;7.540;2023-02-21T11:49:35;100638.16;;;18.38;40.59
16190;BME280;41754;51.498;7.540;2023-02-21T11:52:08;100635.97;;;18.60;40.34
16190;BME280;41754;51.498;7.540;2023-02-21T11:54:38;100643.81;;;18.14;40.94
16190;BME280;41754;51.498;7.540;2023-02-21T11:57:12;100635.09;;;18.72;40.18
16190;BME280;41754;51.498;7.540;2023-02-21T11:59:47;100641.38;;;18.13;41.20
16190;BME280;41754;51.498;7.540;2023-02-21T12:02:49;100630.88;;;18.34;40.39
16190;BME280;41754;51.498;7.540;2023-02-21T12:05:31;100625.81;;;18.67;39.59
16190;BME280;41754;51.498;7.540;2023-02-21T12:08:24;100622.75;;;18.01;40.70
16190;BME280;41754;51.498;7.540;2023-02-21T12:11:01;100615.94;;;18.26;40.22
16190;BME280;41754;51.498;7.540;2023-02-21T12:13:40;100609.25;;;19.53;38.41
16190;BME280;41754;51.498;7.540;2023-02-21T12:16:13;100600.56;;;19.94;37.47
16190;BME280;41754;51.498;7.540;2023-02-21T12:18:59;100603.22;;;19.51;38.04
16190;BME280;41754;51.498;7.540;2023-02-21T12:21:47;100596.88;;;18.72;39.46
16190;BME280;41754;51.498;7.540;2023-02-21T12:24:32;100597.25;;;19.18;38.97
16190;BME280;41754;51.498;7.540;2023-02-21T12:27:10;100596.66;;;19.09;39.94
16190;BME280;41754;51.498;7.540;2023-02-21T12:29:57;100602.91;;;18.74;39.54
16190;BME280;41754;51.498;7.540;2023-02-21T12:32:46;100584.13;;;18.87;39.38
16190;BME280;41754;51.498;7.540;2023-02-21T12:35:37;100581.84;;;18.77;39.95
16190;BME280;41754;51.498;7.540;2023-02-21T12:38:13;100582.22;;;19.07;39.46
16190;BME280;41754;51.498;7.540;2023-02-21T12:40:53;100575.09;;;18.78;39.68
16190;BME280;41754;51.498;7.540;2023-02-21T12:43:47;100577.53;;;18.79;39.88
16190;BME280;41754;51.498;7.540;2023-02-21T12:46:24;100575.31;;;19.51;38.15
16190;BME280;41754;51.498;7.540;2023-02-21T12:48:58;100568.34;;;18.94;39.30
16190;BME280;41754;51.498;7.540;2023-02-21T12:51:32;100557.69;;;19.47;38.92
16190;BME280;41754;51.498;7.540;2023-02-21T12:54:05;100551.47;;;18.87;39.56
16190;BME280;41754;51.498;7.540;2023-02-21T12:56:41;100558.72;;;18.92;38.75
16190;BME280;41754;51.498;7.540;2023-02-21T12:59:14;100562.22;;;19.36;38.60
16190;BME280;41754;51.498;7.540;2023-02-21T13:01:47;100551.22;;;19.63;37.83
16190;BME280;41754;51.498;7.540;2023-02-21T13:04:23;100551.16;;;19.59;37.86
16190;BME280;41754;51.498;7.540;2023-02-21T13:06:57;100544.63;;;19.71;36.77
16190;BME280;41754;51.498;7.540;2023-02-21T13:09:32;100543.41;;;20.30;36.74
16190;BME280;41754;51.498;7.540;2023-02-21T13:12:06;100541.16;;;19.77;37.56
16190;BME280;41754;51.498;7.540;2023-02-21T13:14:40;100539.19;;;19.78;37.71
16190;BME280;41754;51.498;7.540;2023-02-21T13:17:09;100532.56;;;21.20;35.99
16190;BME280;41754;51.498;7.540;2023-02-21T13:19:44;100545.34;;;18.97;39.00
16190;BME280;41754;51.498;7.540;2023-02-21T13:26:04;100529.19;;;19.77;37.98
16190;BME280;41754;51.498;7.540;2023-02-21T13:28:39;100525.03;;;19.87;37.45
16190;BME280;41754;51.498;7.540;2023-02-21T13:31:18;100523.47;;;19.89;36.95
16190;BME280;41754;51.498;7.540;2023-02-21T13:33:49;100522.72;;;19.18;38.49
16190;BME280;41754;51.498;7.540;2023-02-21T13:36:24;100521.72;;;20.00;37.00